Time;durP1;ratioP1;P1;durP2;ratioP2;P2;SDS_P1;SDS_P2;PMS_P1;PMS_P2;Temp;Humidity;BMP_temperature;BMP_pressure;BME280_temperature;BME280_humidity;BME280_pressure;Samples;Min_cycle;Max_cycle;Signal;HPM_P1;HPM_P2
2021/04/25 00:01:25;;;;;;;11.20;7.87;;;7.50;99.90;;;;;;4995096;28;20475;-68
2021/04/25 00:03:58;;;;;;;9.20;8.00;;;7.50;99.90;;;;;;4996063;28;20462;-69
2021/04/25 00:06:27;;;;;;;11.23;8.60;;;7.60;99.90;;;;;;4996550;28;20425;-67
2021/04/25 00:08:54;;;;;;;12.97;8.77;;;7.60;99.90;;;;;;4996658;28;20450;-69
2021/04/25 00:11:22;;;;;;;11.07;8.63;;;7.60;99.90;;;;;;4996101;28;20478;-67
2021/04/25 00:13:49;;;;;;;10.43;8.23;;;7.50;99.90;;;;;;4996690;28;20460;-70
2021/04/25 00:16:17;;;;;;;13.47;8.57;;;7.50;99.90;;;;;;4995381;28;20782;-67
2021/04/25 00:18:45;;;;;;;11.20;9.07;;;7.40;99.90;;;;;;4996401;28;20406;-67
2021/04/25 00:21:13;;;;;;;12.03;9.37;;;7.40;99.90;;;;;;4997814;28;20942;-67
2021/04/25 00:23:41;;;;;;;13.27;9.47;;;7.30;99.90;;;;;;4999115;28;20436;-67
2021/04/25 00:26:08;;;;;;;13.53;8.50;;;7.20;99.90;;;;;;4999115;28;20464;-67
2021/04/25 00:28:36;;;;;;;15.87;10.00;;;7.10;99.90;;;;;;4997697;28;20460;-67
2021/04/25 00:31:28;;;;;;;10.83;7.97;;;7.20;99.90;;;;;;4959803;28;20464;-67
2021/04/25 00:33:56;;;;;;;11.87;8.33;;;7.20;99.90;;;;;;4961558;28;20487;-67
2021/04/25 00:36:25;;;;;;;8.97;7.40;;;7.20;99.90;;;;;;4961613;28;20415;-67
2021/04/25 00:38:53;;;;;;;18.93;9.60;;;7.10;99.90;;;;;;4961460;29;20452;-67
2021/04/25 00:41:25;;;;;;;10.97;8.33;;;7.00;99.90;;;;;;4962083;28;21006;-67
2021/04/25 00:43:54;;;;;;;12.40;9.73;;;7.10;99.90;;;;;;4961825;28;20481;-68
2021/04/25 00:46:21;;;;;;;12.23;8.50;;;6.90;99.90;;;;;;4961462;28;20484;-67
2021/04/25 00:48:51;;;;;;;10.87;8.47;;;6.90;99.90;;;;;;4960027;29;20547;-67
2021/04/25 00:51:22;;;;;;;15.10;8.93;;;6.80;99.90;;;;;;4961395;29;20803;-68
2021/04/25 00:53:50;;;;;;;12.73;9.00;;;6.90;99.90;;;;;;4961942;28;20439;-68
2021/04/25 00:56:20;;;;;;;11.50;10.30;;;6.70;99.90;;;;;;4960858;29;20803;-68
2021/04/25 00:58:48;;;;;;;12.07;8.90;;;6.70;99.90;;;;;;4961135;28;20435;-68
2021/04/25 01:01:16;;;;;;;10.97;8.00;;;6.60;99.90;;;;;;4958886;28;20474;-69
2021/04/25 01:03:44;;;;;;;14.17;9.13;;;6.70;99.90;;;;;;4961241;29;20440;-68
2021/04/25 01:06:12;;;;;;;9.40;6.93;;;6.60;99.90;;;;;;4960727;29;20437;-68
2021/04/25 01:08:39;;;;;;;12.20;8.10;;;6.50;99.90;;;;;;4960663;28;20433;-68
2021/04/25 01:11:07;;;;;;;15.30;8.90;;;6.60;99.90;;;;;;4960757;29;20443;-67
2021/04/25 01:13:35;;;;;;;13.27;8.90;;;6.50;99.90;;;;;;4960734;29;20962;-68
2021/04/25 01:16:04;;;;;;;9.57;7.60;;;6.60;99.90;;;;;;4959572;28;20855;-68
2021/04/25 01:18:31;;;;;;;14.03;9.83;;;6.60;99.90;;;;;;4960703;29;20443;-67
2021/04/25 01:21:01;;;;;;;9.20;8.30;;;6.60;99.90;;;;;;4960182;29;20446;-66
2021/04/25 01:23:29;;;;;;;9.90;7.97;;;6.60;99.90;;;;;;4961974;28;20450;-68
2021/04/25 01:25:56;;;;;;;10.63;7.57;;;6.60;99.90;;;;;;4961264;28;20467;-66
2021/04/25 01:28:25;;;;;;;11.97;7.27;;;6.60;99.90;;;;;;4960970;29;20439;-67
2021/04/25 01:30:55;;;;;;;10.53;7.57;;;6.50;99.90;;;;;;4991079;28;20477;-69
2021/04/25 01:33:24;;;;;;;16.03;9.47;;;6.50;99.90;;;;;;4996933;28;20445;-69
2021/04/25 01:35:52;;;;;;;8.33;6.70;;;6.40;99.90;;;;;;4982931;28;20484;-67
2021/04/25 01:38:21;;;;;;;12.67;8.47;;;6.40;99.90;;;;;;4998317;28;20789;-67
2021/04/25 01:40:50;;;;;;;481.73;163.52;;;6.40;99.90;;;;;;5001075;28;20460;-67
2021/04/25 01:43:19;;;;;;;533.05;337.13;;;6.30;99.90;;;;;;5000324;28;20438;-67
2021/04/25 01:45:46;;;;;;;;;;;6.20;99.90;;;;;;5000687;28;20438;-67
2021/04/25 01:48:14;;;;;;;;;;;6.20;99.90;;;;;;5001567;28;19922;-67
2021/04/25 01:50:42;;;;;;;559.27;425.63;;;6.10;99.90;;;;;;5000021;28;20926;-66
2021/04/25 01:53:10;;;;;;;;;;;6.10;99.90;;;;;;4999722;28;20426;-68
2021/04/25 01:55:39;;;;;;;;;;;6.10;99.90;;;;;;5002494;28;20370;-66
2021/04/25 01:58:07;;;;;;;;;;;6.10;99.90;;;;;;4999589;28;20386;-68
2021/04/25 02:00:39;;;;;;;601.80;527.03;;;6.00;99.90;;;;;;4994618;28;20404;-68
2021/04/25 02:03:09;;;;;;;634.78;567.97;;;5.90;99.90;;;;;;4995689;28;20414;-68
2021/04/25 02:05:38;;;;;;;578.13;476.42;;;5.90;99.90;;;;;;4993965;28;20418;-68
2021/04/25 02:08:08;;;;;;;585.25;480.52;;;6.00;99.90;;;;;;4995365;28;20445;-68
2021/04/25 02:10:36;;;;;;;571.85;460.98;;;5.90;99.90;;;;;;4995607;28;20423;-68
2021/04/25 02:13:30;;;;;;;567.03;441.48;;;5.90;99.90;;;;;;4994994;28;20814;-68
2021/04/25 02:15:57;;;;;;;563.00;437.50;;;5.80;99.90;;;;;;4994366;28;20422;-71
2021/04/25 02:18:26;;;;;;;566.88;445.48;;;5.80;99.90;;;;;;4995361;28;20501;-68
2021/04/25 02:20:53;;;;;;;563.00;438.40;;;5.70;99.90;;;;;;4995096;28;20422;-68
2021/04/25 02:23:22;;;;;;;563.95;444.85;;;5.70;99.90;;;;;;4994894;28;20421;-69
2021/04/25 02:25:55;;;;;;;625.75;559.30;;;5.70;99.90;;;;;;4994714;28;20430;-68
2021/04/25 02:28:23;;;;;;;581.13;481.20;;;5.70;99.90;;;;;;4995105;28;20497;-71
2021/04/25 02:30:51;;;;;;;590.33;513.28;;;5.80;99.90;;;;;;4994192;28;20441;-68
2021/04/25 02:33:19;;;;;;;576.00;474.58;;;5.80;99.90;;;;;;4995915;28;20416;-68
2021/04/25 02:35:46;;;;;;;570.92;456.05;;;5.90;99.90;;;;;;4995688;28;20421;-68
2021/04/25 02:38:14;;;;;;;576.00;472.48;;;5.90;99.90;;;;;;4995090;28;20407;-68
2021/04/25 02:40:41;;;;;;;582.60;512.27;;;5.90;99.90;;;;;;4977550;28;20490;-68
2021/04/25 02:43:11;;;;;;;577.60;480.05;;;5.90;99.90;;;;;;4994695;28;20811;-68
2021/04/25 02:45:40;;;;;;;574.40;459.50;;;5.90;99.90;;;;;;4992748;28;20418;-68
2021/04/25 02:48:10;;;;;;;577.57;476.20;;;5.90;99.90;;;;;;4993099;28;20493;-68
2021/04/25 02:50:40;;;;;;;572.75;452.75;;;5.80;99.90;;;;;;4994177;28;20414;-68
2021/04/25 02:53:08;;;;;;;580.13;461.65;;;5.80;99.90;;;;;;4977261;28;20421;-68
2021/04/25 02:55:37;;;;;;;573.85;449.25;;;5.70;99.90;;;;;;4994797;28;20423;-68
2021/04/25 02:58:06;;;;;;;567.78;445.33;;;5.60;99.90;;;;;;4996547;28;20410;-68
2021/04/25 03:00:34;;;;;;;572.13;454.02;;;5.50;99.90;;;;;;4978121;28;20441;-68
2021/04/25 03:03:02;;;;;;;577.72;462.85;;;5.50;99.90;;;;;;4996216;28;20521;-68
2021/04/25 03:05:31;;;;;;;588.65;498.58;;;5.50;99.90;;;;;;4995823;28;20429;-70
2021/04/25 03:07:59;;;;;;;583.75;485.20;;;5.50;99.90;;;;;;4996630;28;20415;-68
2021/04/25 03:10:28;;;;;;;590.63;489.03;;;5.50;99.90;;;;;;4998980;28;20406;-68
2021/04/25 03:12:56;;;;;;;578.67;455.20;;;5.60;99.90;;;;;;4999758;28;20428;-70
2021/04/25 03:15:24;;;;;;;581.17;451.90;;;5.60;99.90;;;;;;4997926;28;20450;-70
2021/04/25 03:17:52;;;;;;;584.80;500.00;;;5.60;99.90;;;;;;4999328;28;20423;-68
2021/04/25 03:20:22;;;;;;;579.80;459.63;;;5.50;99.90;;;;;;4998710;28;20411;-69
2021/04/25 03:22:51;;;;;;;594.28;504.60;;;5.50;99.90;;;;;;4998602;28;20426;-69
2021/04/25 03:25:19;;;;;;;559.30;378.00;;;5.30;99.90;;;;;;4998717;28;20423;-68
2021/04/25 03:27:47;;;;;;;624.70;534.65;;;5.20;99.90;;;;;;4980016;28;25101;-68
2021/04/25 03:30:17;;;;;;;614.97;471.30;;;5.20;99.90;;;;;;4998392;28;20906;-71
2021/04/25 03:32:45;;;;;;;623.88;533.05;;;5.00;99.90;;;;;;4998324;28;20453;-68
2021/04/25 03:35:20;;;;;;;624.25;545.85;;;5.00;99.90;;;;;;4999061;28;20422;-69
2021/04/25 03:37:48;;;;;;;611.47;454.70;;;4.90;99.90;;;;;;4999348;28;20493;-68
2021/04/25 03:40:19;;;;;;;621.53;479.58;;;4.90;99.90;;;;;;4999159;28;20416;-67
2021/04/25 03:42:46;;;;;;;625.88;519.63;;;4.80;99.90;;;;;;4998950;28;20422;-68
2021/04/25 03:45:14;;;;;;;638.05;494.85;;;4.70;99.90;;;;;;4998332;28;20756;-67
2021/04/25 03:47:42;;;;;;;624.17;486.50;;;4.70;99.90;;;;;;4998912;28;20407;-68
2021/04/25 03:50:12;;;;;;;623.88;481.08;;;4.70;99.90;;;;;;4999348;28;20484;-68
2021/04/25 03:52:41;;;;;;;621.37;483.80;;;4.60;99.90;;;;;;4999251;28;20484;-68
2021/04/25 03:55:09;;;;;;;623.05;512.60;;;4.50;99.90;;;;;;4998902;28;20894;-68
2021/04/25 03:57:41;;;;;;;630.95;538.17;;;4.50;99.90;;;;;;5002799;28;20469;-67
2021/04/25 04:00:10;;;;;;;624.13;509.38;;;4.60;99.90;;;;;;5002116;28;20442;-67
2021/04/25 04:02:38;;;;;;;642.08;571.78;;;4.80;99.90;;;;;;5002979;28;20431;-70
2021/04/25 04:05:07;;;;;;;618.22;501.88;;;4.90;99.90;;;;;;5001400;28;20824;-69
2021/04/25 04:07:34;;;;;;;611.03;481.85;;;4.90;99.90;;;;;;5002970;28;20414;-68
2021/04/25 04:10:02;;;;;;;620.53;494.17;;;4.90;99.90;;;;;;4999886;28;20484;-67
2021/04/25 04:12:30;;;;;;;627.92;518.40;;;4.90;99.90;;;;;;5000492;28;20417;-68
2021/04/25 04:14:59;;;;;;;619.80;535.50;;;4.80;99.90;;;;;;4985987;28;20412;-67
2021/04/25 04:17:26;;;;;;;622.75;533.40;;;4.80;99.90;;;;;;5001803;28;20423;-68
2021/04/25 04:19:54;;;;;;;628.25;542.10;;;4.80;99.90;;;;;;5003174;28;20411;-68
2021/04/25 04:22:21;;;;;;;624.72;543.47;;;4.70;99.90;;;;;;5002966;28;20403;-67
2021/04/25 04:24:51;;;;;;;641.42;572.10;;;4.70;99.90;;;;;;5001576;28;20408;-68
2021/04/25 04:27:19;;;;;;;622.63;553.85;;;4.60;99.90;;;;;;4999060;28;20481;-68
2021/04/25 04:29:47;;;;;;;612.33;511.23;;;4.70;99.90;;;;;;4998604;28;20791;-68
2021/04/25 04:32:15;;;;;;;623.30;510.10;;;4.70;99.90;;;;;;4996546;28;20422;-71
2021/04/25 04:34:43;;;;;;;621.33;517.65;;;4.70;99.90;;;;;;4997639;28;20449;-68
2021/04/25 04:37:11;;;;;;;629.42;551.53;;;4.80;99.90;;;;;;4997866;28;20452;-68
2021/04/25 04:42:33;;;;;;;;;;;4.90;99.90;;;;;;4997855;28;20414;-68
2021/04/25 04:45:00;;;;;;;;;;;4.90;99.90;;;;;;4999504;28;19980;-68
2021/04/25 04:47:28;;;;;;;;;;;5.00;99.90;;;;;;4999243;28;20017;-69
2021/04/25 04:49:55;;;;;;;;;;;5.00;99.90;;;;;;4999703;28;20326;-68
2021/04/25 04:52:22;;;;;;;;;;;5.10;99.90;;;;;;5002312;28;19988;-68
2021/04/25 04:54:50;;;;;;;;;;;5.20;99.90;;;;;;5002895;28;20462;-69
2021/04/25 04:57:17;;;;;;;;;;;5.30;99.90;;;;;;5002129;28;19976;-68
2021/04/25 04:59:44;;;;;;;;;;;5.40;99.90;;;;;;5001329;28;19967;-68
2021/04/25 05:02:13;;;;;;;;;;;5.40;99.90;;;;;;4997119;28;19921;-68
2021/04/25 05:04:41;;;;;;;;;;;5.50;99.90;;;;;;4998643;28;19999;-68
2021/04/25 05:07:08;;;;;;;;;;;5.50;99.90;;;;;;4997843;28;19976;-68
2021/04/25 05:09:35;;;;;;;;;;;5.60;99.90;;;;;;4999319;28;19921;-68
2021/04/25 05:12:03;;;;;;;;;;;5.60;99.90;;;;;;4998460;28;20278;-68
2021/04/25 05:14:30;;;;;;;;;;;5.70;99.90;;;;;;4998493;28;20389;-68
2021/04/25 05:16:59;;;;;;;;;;;5.80;99.90;;;;;;4997975;28;19926;-68
2021/04/25 05:19:26;;;;;;;;;;;5.90;99.90;;;;;;4998678;28;20390;-68
2021/04/25 05:21:54;;;;;;;;;;;5.90;99.90;;;;;;4998375;28;20012;-67
2021/04/25 05:24:22;;;;;;;;;;;6.00;99.90;;;;;;4999422;28;19945;-68
2021/04/25 05:26:51;;;;;;;;;;;6.10;99.90;;;;;;5001457;28;20348;-68
2021/04/25 05:29:18;;;;;;;;;;;6.10;99.90;;;;;;5000999;28;19922;-68
2021/04/25 05:31:45;;;;;;;;;;;6.20;99.90;;;;;;5000346;28;19921;-68
2021/04/25 05:34:13;;;;;;;;;;;6.20;99.90;;;;;;5001119;28;19928;-67
2021/04/25 05:36:40;;;;;;;;;;;6.40;99.90;;;;;;5001794;28;19925;-68
2021/04/25 05:39:09;;;;;;;;;;;6.40;99.90;;;;;;5001423;28;19921;-68
2021/04/25 05:41:37;;;;;;;;;;;6.40;99.90;;;;;;5000505;28;19921;-68
2021/04/25 05:44:05;;;;;;;;;;;6.50;99.90;;;;;;5001380;28;19928;-68
2021/04/25 05:46:33;;;;;;;;;;;6.50;99.90;;;;;;4999840;28;20396;-68
2021/04/25 05:49:00;;;;;;;;;;;6.70;99.90;;;;;;5000330;28;19928;-68
2021/04/25 05:51:28;;;;;;;;;;;6.80;99.90;;;;;;5000184;28;19922;-67
2021/04/25 05:53:56;;;;;;;;;;;6.80;99.90;;;;;;5000620;28;19921;-68
2021/04/25 05:56:24;;;;;;;;;;;6.90;99.90;;;;;;4999953;28;19933;-67
2021/04/25 05:58:52;;;;;;;;;;;7.00;99.90;;;;;;5000233;28;20396;-67
2021/04/25 06:01:19;;;;;;;;;;;7.30;99.90;;;;;;4998627;28;19922;-68
2021/04/25 06:03:47;;;;;;;;;;;7.60;99.90;;;;;;4998639;28;20374;-68
2021/04/25 06:06:15;;;;;;;;;;;8.10;99.90;;;;;;4982564;28;19922;-67
2021/04/25 06:08:42;;;;;;;;;;;8.40;98.90;;;;;;4999474;28;20270;-67
2021/04/25 06:11:10;;;;;;;;;;;8.60;98.20;;;;;;4999469;28;19925;-68
2021/04/25 06:13:38;;;;;;;;;;;8.80;97.40;;;;;;4999387;28;20314;-67
2021/04/25 06:16:06;;;;;;;;;;;9.40;96.30;;;;;;4998211;28;19922;-67
2021/04/25 06:18:33;;;;;;;;;;;10.10;93.80;;;;;;4997889;28;19922;-68
2021/04/25 06:21:01;;;;;;;;;;;10.30;92.30;;;;;;4997895;28;19921;-68
2021/04/25 06:23:28;;;;;;;862.67;784.47;;;11.30;91.00;;;;;;4976644;28;20444;-68
2021/04/25 06:25:56;;;;;;;893.78;815.08;;;12.60;83.80;;;;;;4975859;28;20424;-68
2021/04/25 06:28:27;;;;;;;876.00;797.30;;;12.90;79.60;;;;;;4975221;28;20471;-67
2021/04/25 06:31:21;;;;;;;871.65;793.05;;;13.30;75.30;;;;;;4974333;28;20710;-65
2021/04/25 06:33:49;;;;;;;908.87;829.47;;;13.80;70.80;;;;;;4975613;28;20550;-67
2021/04/25 06:36:43;;;;;;;933.35;853.47;;;14.20;67.90;;;;;;4975589;28;20419;-67
2021/04/25 06:39:12;;;;;;;964.88;883.83;;;14.50;66.70;;;;;;4975218;28;20424;-66
2021/04/25 06:41:39;;;;;;;988.53;906.42;;;15.60;62.90;;;;;;4990169;28;20512;-66
2021/04/25 06:44:08;;;;;;;961.05;880.13;;;15.40;60.00;;;;;;4976408;28;20444;-66
2021/04/25 06:46:38;;;;;;;969.80;888.97;;;14.80;59.20;;;;;;4974970;28;20733;-66
2021/04/25 06:49:06;;;;;;;950.67;870.97;;;14.00;59.40;;;;;;4975845;28;20979;-67
2021/04/25 06:51:33;;;;;;;942.00;862.90;;;14.20;57.70;;;;;;4958897;28;20404;-66
2021/04/25 06:54:01;;;;;;;951.00;871.60;;;13.60;58.50;;;;;;4959166;28;20412;-67
2021/04/25 06:56:29;;;;;;;967.88;887.67;;;13.90;58.70;;;;;;4976058;28;20424;-67
2021/04/25 06:58:56;;;;;;;1031.97;948.40;;;14.40;57.90;;;;;;4975806;28;20808;-67
2021/04/25 07:01:25;;;;;;;1134.43;999.90;;;15.50;57.10;;;;;;4975243;28;20999;-66
2021/04/25 07:03:59;;;;;;;1174.93;999.90;;;16.40;53.50;;;;;;4978799;28;20420;-66
2021/04/25 07:06:27;;;;;;;1142.68;999.90;;;17.10;52.20;;;;;;4981371;28;20430;-66
2021/04/25 07:08:55;;;;;;;1088.40;999.90;;;16.90;50.00;;;;;;4983510;28;20487;-69
2021/04/25 07:11:22;;;;;;;1140.00;999.90;;;16.80;51.20;;;;;;4981119;28;20405;-67
2021/04/25 07:13:49;;;;;;;1109.53;999.90;;;16.40;49.60;;;;;;4980045;28;20424;-68
2021/04/25 07:16:18;;;;;;;1076.35;995.65;;;14.90;50.20;;;;;;4995038;28;20428;-70
2021/04/25 07:18:46;;;;;;;1099.38;999.90;;;14.20;52.40;;;;;;4977303;28;20440;-67
2021/04/25 07:21:14;;;;;;;1134.75;999.90;;;15.80;52.30;;;;;;4991033;28;20420;-67
2021/04/25 07:23:41;;;;;;;1155.30;999.90;;;17.70;48.90;;;;;;4958465;28;20404;-66
2021/04/25 07:26:11;;;;;;;1187.20;999.90;;;17.90;46.30;;;;;;4974804;28;20423;-66
2021/04/25 07:28:40;;;;;;;1186.80;999.90;;;17.90;46.30;;;;;;4989717;28;20793;-71
2021/04/25 07:31:09;;;;;;;1193.95;999.90;;;17.40;43.20;;;;;;4971991;28;20420;-66
2021/04/25 07:33:37;;;;;;;1215.05;999.90;;;17.40;45.90;;;;;;4975223;28;20408;-66
2021/04/25 07:36:08;;;;;;;1192.07;999.90;;;17.20;42.60;;;;;;4958445;28;20482;-66
2021/04/25 07:38:38;;;;;;;1186.65;999.90;;;17.40;41.40;;;;;;4974442;28;20412;-66
2021/04/25 07:41:06;;;;;;;1192.18;999.90;;;17.40;40.60;;;;;;4975985;28;20423;-66
2021/04/25 07:43:34;;;;;;;1197.18;999.90;;;18.10;41.60;;;;;;4976010;28;20404;-67
2021/04/25 07:46:01;;;;;;;1204.97;999.90;;;17.70;39.20;;;;;;4975973;28;20431;-68
2021/04/25 07:48:29;;;;;;;;;;;16.50;41.50;;;;;;4991079;28;20909;-66
2021/04/25 07:50:57;;;;;;;1178.05;999.90;;;16.30;42.00;;;;;;4976184;28;20393;-69
2021/04/25 07:53:24;;;;;;;;;;;16.60;42.40;;;;;;4975737;28;20495;-65
2021/04/25 07:55:53;;;;;;;;;;;17.00;41.20;;;;;;4976786;28;19949;-66
2021/04/25 07:58:21;;;;;;;1139.75;999.90;;;15.60;42.20;;;;;;4976485;28;20430;-68
2021/04/25 08:00:48;;;;;;;1106.35;999.90;;;15.60;43.30;;;;;;4974004;28;20424;-65
2021/04/25 08:03:16;;;;;;;;;;;16.70;42.90;;;;;;4991683;28;20214;-64
2021/04/25 08:05:43;;;;;;;17.27;16.58;;;17.10;40.80;;;;;;4975892;28;20414;-67
2021/04/25 08:08:10;;;;;;;697.47;627.30;;;18.60;41.10;;;;;;4992120;28;20186;-65
2021/04/25 08:10:38;;;;;;;1092.50;999.90;;;17.40;39.70;;;;;;4958438;28;20828;-69
2021/04/25 08:13:10;;;;;;;1100.90;999.90;;;17.10;41.00;;;;;;4976049;28;20416;-65
2021/04/25 08:15:38;;;;;;;1123.70;999.90;;;17.10;42.00;;;;;;4974609;28;20420;-67
2021/04/25 08:18:05;;;;;;;1095.57;999.90;;;16.20;41.90;;;;;;4957827;28;20419;-65
2021/04/25 08:20:33;;;;;;;1139.75;999.90;;;18.00;41.10;;;;;;4976855;28;20416;-65
2021/04/25 08:23:00;;;;;;;1114.47;999.90;;;19.20;39.00;;;;;;4976148;28;20809;-67
2021/04/25 08:25:28;;;;;;;1168.80;999.90;;;20.10;38.10;;;;;;4976625;28;20854;-66
2021/04/25 08:30:49;;;;;;;1077.50;995.30;;;18.90;37.40;;;;;;4971252;28;20909;-67
2021/04/25 08:33:16;;;;;;;1070.95;989.15;;;19.80;35.70;;;;;;4989521;28;20447;-69
2021/04/25 08:35:44;;;;;;;1094.82;999.90;;;17.60;37.20;;;;;;4975486;28;20452;-65
2021/04/25 08:38:11;;;;;;;1124.75;999.90;;;17.30;39.00;;;;;;4975503;28;20416;-66
2021/04/25 08:41:05;;;;;;;1115.90;999.90;;;21.00;37.60;;;;;;4975650;28;20558;-65
2021/04/25 08:43:33;;;;;;;1114.93;999.90;;;20.20;35.20;;;;;;4978140;28;20420;-65
2021/04/25 08:46:02;;;;;;;1142.55;999.90;;;19.00;33.70;;;;;;4944294;28;20527;-64
2021/04/25 08:48:32;;;;;;;1136.73;999.90;;;19.90;35.20;;;;;;4979407;28;20855;-65
2021/04/25 08:51:00;;;;;;;1152.63;999.90;;;20.90;33.20;;;;;;4978951;28;21022;-64
2021/04/25 08:53:28;;;;;;;1135.45;999.90;;;20.60;32.00;;;;;;4978096;28;20458;-65
2021/04/25 08:55:55;;;;;;;1177.20;999.90;;;20.10;32.70;;;;;;4979023;28;20420;-65
2021/04/25 08:58:22;;;;;;;1149.85;999.90;;;19.00;33.70;;;;;;4979031;28;20420;-65
2021/04/25 09:00:50;;;;;;;1132.40;999.90;;;19.00;35.90;;;;;;4993497;28;20423;-68
2021/04/25 09:03:18;;;;;;;1120.20;999.90;;;19.00;34.90;;;;;;4978527;28;20459;-67
2021/04/25 09:05:46;;;;;;;1176.50;999.90;;;19.70;34.10;;;;;;4993751;28;20470;-65
2021/04/25 09:08:13;;;;;;;1163.20;999.90;;;19.60;33.40;;;;;;4978950;28;20417;-67
2021/04/25 09:10:43;;;;;;;1191.30;999.90;;;20.80;34.80;;;;;;4979021;28;20447;-65
2021/04/25 09:13:18;;;;;;;1278.72;999.90;;;21.20;32.10;;;;;;4994395;28;20860;-66
2021/04/25 09:15:46;;;;;;;1269.22;999.90;;;20.70;31.40;;;;;;4977956;28;20927;-64
2021/04/25 09:18:13;;;;;;;1286.38;999.90;;;20.90;32.70;;;;;;4961741;28;20435;-67
2021/04/25 09:20:44;;;;;;;1283.85;999.90;;;20.10;31.90;;;;;;4961105;28;20442;-63
2021/04/25 09:23:14;;;;;;;1320.97;999.90;;;22.20;33.50;;;;;;4979023;28;20463;-64
2021/04/25 09:25:54;;;;;;;1285.05;999.90;;;24.90;29.90;;;;;;4978788;28;20424;-63
2021/04/25 09:28:22;;;;;;;1301.72;999.90;;;23.40;29.90;;;;;;4979042;28;20932;-64
2021/04/25 09:30:58;;;;;;;1282.30;999.90;;;23.00;31.40;;;;;;4989961;28;20448;-68
2021/04/25 09:33:27;;;;;;;1269.78;999.90;;;22.40;30.40;;;;;;4959168;28;20508;-65
2021/04/25 09:35:58;;;;;;;1238.37;999.90;;;21.50;30.00;;;;;;4960513;29;20506;-64
2021/04/25 09:38:34;;;;;;;1219.57;999.90;;;21.80;31.60;;;;;;4960466;29;20858;-66
2021/04/25 09:41:02;;;;;;;1243.93;999.90;;;20.90;31.80;;;;;;4959624;29;20476;-64
2021/04/25 09:43:39;;;;;;;1248.00;999.90;;;21.30;32.40;;;;;;4959577;29;20413;-65
2021/04/25 09:46:07;;;;;;;1262.32;999.90;;;22.00;30.60;;;;;;4957879;28;20766;-64
2021/04/25 09:48:36;;;;;;;1234.82;999.90;;;20.20;31.90;;;;;;4958408;28;20420;-65
2021/04/25 09:51:13;;;;;;;1226.35;999.90;;;20.00;31.30;;;;;;4958448;29;20815;-65
2021/04/25 09:53:42;;;;;;;1199.70;999.90;;;20.40;31.70;;;;;;4957829;28;20409;-65
2021/04/25 09:56:10;;;;;;;1277.75;999.90;;;22.40;31.30;;;;;;4959213;29;20418;-65
2021/04/25 09:59:00;;;;;;;1250.13;999.90;;;24.90;29.40;;;;;;4957683;29;20429;-65
2021/04/25 10:01:28;;;;;;;1194.43;999.90;;;22.70;29.90;;;;;;4946775;28;20986;-66
2021/04/25 10:03:57;;;;;;;1196.07;999.90;;;22.40;30.40;;;;;;4971069;28;20423;-66
2021/04/25 10:06:25;;;;;;;1264.68;999.90;;;21.40;29.70;;;;;;4939650;29;20423;-64
2021/04/25 10:08:53;;;;;;;1218.22;999.90;;;19.50;32.70;;;;;;4939888;29;20427;-65
2021/04/25 10:11:24;;;;;;;1140.72;999.90;;;20.30;33.20;;;;;;4939429;29;20488;-64
2021/04/25 10:13:52;;;;;;;1230.20;999.90;;;20.60;33.70;;;;;;4939283;29;20447;-67
2021/04/25 10:16:21;;;;;;;1222.75;999.90;;;20.80;32.80;;;;;;4938292;28;20419;-64
2021/04/25 10:18:49;;;;;;;1210.72;999.90;;;21.30;32.40;;;;;;4939512;29;20434;-65
2021/04/25 10:21:18;;;;;;;1232.22;999.90;;;22.20;30.90;;;;;;4938043;29;20427;-64
2021/04/25 10:23:47;;;;;;;1230.45;999.90;;;18.70;32.80;;;;;;4939083;29;20423;-64
2021/04/25 10:26:17;;;;;;;1239.63;999.90;;;19.00;35.10;;;;;;4938980;29;20471;-65
2021/04/25 10:28:47;;;;;;;1221.25;999.90;;;19.00;34.00;;;;;;4938801;29;20491;-64
2021/04/25 10:34:19;;;;;;;1263.35;999.90;;;20.30;32.50;;;;;;4977879;28;20466;-65
2021/04/25 10:37:01;;;;;;;1250.20;999.90;;;20.90;31.40;;;;;;4977268;28;20431;-64
2021/04/25 10:42:38;;;;;;;1209.53;999.90;;;20.20;32.40;;;;;;4977496;28;20482;-66
2021/04/25 10:45:16;;;;;;;1193.47;999.90;;;20.70;30.90;;;;;;4977726;28;20419;-65
2021/04/25 10:47:47;;;;;;;1197.38;999.90;;;22.10;31.80;;;;;;4977180;28;20844;-65
2021/04/25 10:50:43;;;;;;;1143.22;999.90;;;19.70;33.20;;;;;;4960356;28;20419;-65
2021/04/25 10:56:23;;;;;;;1135.17;999.90;;;19.10;35.90;;;;;;4976984;28;20745;-65
2021/04/25 10:59:30;;;;;;;1203.83;999.90;;;18.20;35.50;;;;;;4976752;28;20427;-67
2021/04/25 11:02:00;;;;;;;1159.90;999.90;;;20.10;34.90;;;;;;4961713;28;20512;-64
2021/04/25 11:05:07;;;;;;;1188.63;999.90;;;21.10;33.10;;;;;;4971876;28;20429;-64
2021/04/25 11:07:46;;;;;;;1196.88;999.90;;;20.10;32.20;;;;;;4957694;29;20433;-64
2021/04/25 11:10:20;;;;;;;1163.90;999.90;;;19.80;33.30;;;;;;4939880;29;20436;-64
2021/04/25 11:12:49;;;;;;;1201.95;999.90;;;18.50;33.70;;;;;;4941126;29;20421;-64
2021/04/25 11:15:48;;;;;;;1149.43;999.90;;;18.10;35.60;;;;;;4939674;28;20735;-64
2021/04/25 11:18:48;;;;;;;1147.03;999.90;;;19.40;34.00;;;;;;4957654;29;20759;-65
2021/04/25 11:21:54;;;;;;;1144.72;999.90;;;19.60;34.20;;;;;;4972133;28;20417;-66
2021/04/25 11:24:38;;;;;;;1153.90;999.90;;;19.60;34.60;;;;;;4940233;29;20440;-65
2021/04/25 11:27:30;;;;;;;1174.38;999.90;;;20.30;34.90;;;;;;4957387;29;20425;-66
2021/04/25 11:30:05;;;;;;;1175.27;999.90;;;20.00;33.80;;;;;;4956680;29;20544;-65
2021/04/25 11:32:38;;;;;;;1162.85;999.90;;;19.80;33.40;;;;;;4956428;28;20417;-68
2021/04/25 11:35:12;;;;;;;1189.80;999.90;;;19.60;34.00;;;;;;4957009;29;20961;-65
2021/04/25 11:38:06;;;;;;;1192.85;999.90;;;19.70;31.90;;;;;;4939479;29;20421;-65
2021/04/25 11:40:38;;;;;;;1149.75;999.90;;;21.70;32.00;;;;;;4957013;29;20422;-69
2021/04/25 11:43:09;;;;;;;1294.03;999.90;;;19.30;30.80;;;;;;4971840;28;20417;-66
2021/04/25 11:45:38;;;;;;;1251.47;999.90;;;18.40;32.90;;;;;;4955457;28;20414;-66
2021/04/25 11:48:09;;;;;;;1267.90;999.90;;;18.40;34.00;;;;;;4956384;29;20501;-65
2021/04/25 11:50:40;;;;;;;1271.10;999.90;;;18.10;34.30;;;;;;4956171;29;20438;-64
2021/04/25 11:53:08;;;;;;;1265.97;999.90;;;18.00;34.80;;;;;;4955731;29;20424;-66
2021/04/25 11:55:35;;;;;;;1253.18;999.90;;;18.40;35.00;;;;;;4956316;29;20413;-66
2021/04/25 11:58:05;;;;;;;1232.75;999.90;;;18.60;34.30;;;;;;4956417;29;20901;-66
2021/04/25 12:00:35;;;;;;;1263.93;999.90;;;19.70;34.20;;;;;;4955443;28;20418;-66
2021/04/25 12:03:05;;;;;;;1155.15;999.90;;;18.50;33.60;;;;;;4956960;29;20767;-65
2021/04/25 12:05:33;;;;;;;1112.38;999.90;;;18.80;34.20;;;;;;4956417;29;20429;-65
2021/04/25 12:08:02;;;;;;;1232.57;999.90;;;19.00;33.80;;;;;;4971567;28;20425;-65
2021/04/25 12:10:32;;;;;;;1189.10;999.90;;;18.50;33.10;;;;;;4955555;29;20500;-64
2021/04/25 12:13:29;;;;;;;1173.28;999.90;;;18.20;33.80;;;;;;4957080;29;20473;-67
2021/04/25 12:16:01;;;;;;;1171.68;999.90;;;18.10;32.80;;;;;;4956306;28;20505;-65
2021/04/25 12:18:32;;;;;;;1171.80;999.90;;;17.90;33.10;;;;;;4975837;28;20421;-65
2021/04/25 12:21:02;;;;;;;869.90;793.77;;;18.50;33.80;;;;;;4961633;29;20187;-65
2021/04/25 12:23:32;;;;;;;1104.32;999.90;;;18.50;33.50;;;;;;4960319;29;20454;-61
2021/04/25 12:25:59;;;;;;;1106.50;999.90;;;17.90;35.00;;;;;;4943005;29;20453;-62
2021/04/25 12:28:37;;;;;;;1100.57;999.90;;;17.40;36.20;;;;;;4959846;29;20430;-65
2021/04/25 12:31:05;;;;;;;1091.82;999.90;;;17.70;37.10;;;;;;4958365;28;20421;-64
2021/04/25 12:33:44;;;;;;;1113.32;999.90;;;17.80;37.20;;;;;;4959652;29;20508;-61
2021/04/25 12:39:08;;;;;;;1067.70;982.60;;;17.30;37.00;;;;;;4959666;29;20444;-61
2021/04/25 12:41:38;;;;;;;1083.30;997.43;;;16.80;37.60;;;;;;4959379;29;20513;-61
2021/04/25 12:44:06;;;;;;;1065.75;980.97;;;16.70;38.60;;;;;;4959225;29;20410;-61
2021/04/25 12:46:34;;;;;;;1109.88;999.90;;;17.30;39.00;;;;;;4958810;28;20524;-62
2021/04/25 12:49:05;;;;;;;1101.03;999.90;;;17.90;38.40;;;;;;4959540;29;20420;-64
2021/04/25 12:51:33;;;;;;;1090.35;999.90;;;16.90;37.60;;;;;;4941930;29;20413;-62
2021/04/25 12:54:27;;;;;;;1084.35;999.90;;;16.30;39.50;;;;;;4942416;29;20453;-62
2021/04/25 12:56:57;;;;;;;1082.10;999.90;;;16.40;40.10;;;;;;4959637;29;20516;-66
2021/04/25 12:59:33;;;;;;;810.23;746.83;;;16.80;39.00;;;;;;4960726;29;20213;-63
2021/04/25 13:02:08;;;;;;;1029.03;975.10;;;16.90;39.10;;;;;;4988156;28;20941;-68
2021/04/25 13:04:42;;;;;;;755.23;680.93;;;16.20;38.80;;;;;;4994798;28;20499;-64